LIPQLIML

Guest
Details From LIPQ - Ronchi Dei Legionari
To LIML - Milano Linate
Flight Number -
Tags decoded
Created
Modified
Stats Distance 179 nm / 332 km
Max Altitude 0 ft / 0 m
Waypoints 6
Social Downloads 7
Likes 0
Share VATSIM

Download

Looking for another format? Having issues loading an existing format? Contact us
Advertisement - Login to hide

Notes

Requested: LIPQ RCH VIC VADIK IBUGO ADOSA IDREK ELTAR LIML Unmatched points: IBUGO IDREK

Route

LIPQ RCH VIC ADOSA ELTAR LIML

ID Type Via Altitude Latitude Longitude Leg Dist Tot Dist Heading (true) Name
O LIPQ APT - 0 ft / 0 m 45.82786˚ 13.46666˚ - 0 nm - Ronchi Dei Legionari
RCH VOR - 0 ft / 0 m 45.82971˚ 13.48027˚ 0 nm 0 nm 79° / 79° RONCHI DEI LEGIONARI VOR-DME
VIC NDB - 0 ft / 0 m 45.63694˚ 11.67472˚ 76 nm 77 nm 262° / 261° VICENZA NDB
ADOSA FIX - 0 ft / 0 m 45.64444˚ 11.02639˚ 27 nm 104 nm 271° / 271° -
ELTAR FIX - 0 ft / 0 m 45.64750˚ 10.62778˚ 16 nm 121 nm 271° / 270° -
O LIML APT - 0 ft / 0 m 45.45030˚ 9.27280˚ 58 nm 179 nm 259° / 258° Milano Linate

Altitude Profile

Advertisement - Login to hide

Weather


0- 5 10 15 20 25 30 35+ Temperature / ° C

Clouds and Precipitation
Forecast for 2018-05-21 06:00 UTC. Updated 2 hours ago

Ground ~20,000 ft ~40,000 ft Winds

LIPQ

Details ICAO LIPQ (TRS)
Name Ronchi Dei Legionari
Region Italy
Timezone Europe/Rome (UTC+2.0)
Stats Elevation 37 ft / 11 m (AMSL)
Location 45.827857° 13.466663°
Runways 1
Magnetic Variation 3.480° E

METAR

LIPQ 210720Z 08013KT CAVOK 23/11 Q1014

Decode

TAF

TAF LIPQ 210500Z 2106/2206 08010KT 9999 SCT060

Decode

Departure Runways

ID Width Length Bearing (true) Bearing (mag) Surface Threshold Offset Overrun Length
09 148 ft / 45 m 9,819 ft / 2,993 m 90.42° 86.94° Asphalt 823 ft / 251 m 0 ft / 0 m
27 148 ft / 45 m 9,819 ft / 2,993 m 270.44° 266.96° Asphalt 10 ft / 3 m 190 ft / 58 m

LIML

Details ICAO LIML (LIN)
Name Milano Linate
Region Italy
Timezone Europe/Rome (UTC+2.0)
Stats Elevation 353 ft / 108 m (AMSL)
Location 45.450302° 9.272801°
Runways 2
Magnetic Variation 2.550° E

METAR

LIML 210720Z 01003KT 340V040 9999 BKN060 19/14 Q1016 NOSIG

Decode

TAF

TAF LIML 210500Z 2106/2206 VRB05KT 9999 BKN050

Decode

Destination Runways

ID Width Length Bearing (true) Bearing (mag) Surface Threshold Offset Overrun Length
17 72 ft / 22 m 1,975 ft / 602 m 175.64° 173.09° Asphalt 200 ft / 61 m 0 ft / 0 m
18 197 ft / 60 m 8,017 ft / 2,443 m 175.67° 173.12° Asphalt 0 ft / 0 m 190 ft / 58 m
35 72 ft / 22 m 1,975 ft / 602 m 355.64° 353.09° Asphalt 200 ft / 61 m 0 ft / 0 m
36 197 ft / 60 m 8,017 ft / 2,443 m 355.68° 353.13° Asphalt 0 ft / 0 m 980 ft / 299 m

Approach Navaids

Runway Type Ident Frequency Range Bearing (true) Bearing (mag) Slope Elevation
36 Localiser ILNT 109.55 MHz 18 nm / 33 km 355.68° 353.13° - 353 ft / 108 m (AMSL)
36 Glidescope ILNT 109.55 MHz 10 nm / 19 km 355.68° 353.13° 3.00° 352 ft / 107 m (AMSL)
36 DME ILNT 109.55 MHz 25 nm / 46 km - - - 352 ft / 107 m (AMSL)

Popular Alternatives